sensor_id;sensor_type;location;lat;lon;timestamp;P1;durP1;ratioP1;P2;durP2;ratioP2
59147;SDS011;44930;52.878;6.168;2023-02-22T00:00:40;50.97;;;20.40;;
59147;SDS011;44930;52.878;6.168;2023-02-22T00:05:42;49.97;;;21.10;;
59147;SDS011;44930;52.878;6.168;2023-02-22T00:08:11;56.63;;;23.75;;
59147;SDS011;44930;52.878;6.168;2023-02-22T00:10:38;48.97;;;20.65;;
59147;SDS011;44930;52.878;6.168;2023-02-22T00:13:04;48.58;;;20.48;;
59147;SDS011;44930;52.878;6.168;2023-02-22T00:15:33;50.42;;;22.52;;
59147;SDS011;44930;52.878;6.168;2023-02-22T00:17:59;46.28;;;20.40;;
59147;SDS011;44930;52.878;6.168;2023-02-22T00:20:25;52.00;;;22.13;;
59147;SDS011;44930;52.878;6.168;2023-02-22T00:22:51;46.75;;;18.60;;
59147;SDS011;44930;52.878;6.168;2023-02-22T00:25:18;50.13;;;20.20;;
59147;SDS011;44930;52.878;6.168;2023-02-22T00:27:45;47.63;;;18.13;;
59147;SDS011;44930;52.878;6.168;2023-02-22T00:30:16;46.70;;;18.67;;
59147;SDS011;44930;52.878;6.168;2023-02-22T00:32:47;46.90;;;19.58;;
59147;SDS011;44930;52.878;6.168;2023-02-22T00:35:15;45.08;;;19.30;;
59147;SDS011;44930;52.878;6.168;2023-02-22T00:37:42;51.47;;;19.35;;
59147;SDS011;44930;52.878;6.168;2023-02-22T00:40:11;44.55;;;18.17;;
59147;SDS011;44930;52.878;6.168;2023-02-22T00:42:39;47.33;;;19.08;;
59147;SDS011;44930;52.878;6.168;2023-02-22T00:45:05;45.03;;;18.38;;
59147;SDS011;44930;52.878;6.168;2023-02-22T00:47:31;45.65;;;18.02;;
59147;SDS011;44930;52.878;6.168;2023-02-22T00:49:56;46.83;;;16.88;;
59147;SDS011;44930;52.878;6.168;2023-02-22T00:52:22;45.20;;;18.95;;
59147;SDS011;44930;52.878;6.168;2023-02-22T00:54:48;43.10;;;18.80;;
59147;SDS011;44930;52.878;6.168;2023-02-22T00:57:14;46.17;;;18.98;;
59147;SDS011;44930;52.878;6.168;2023-02-22T00:59:39;49.53;;;21.65;;
59147;SDS011;44930;52.878;6.168;2023-02-22T01:02:05;47.70;;;19.23;;
59147;SDS011;44930;52.878;6.168;2023-02-22T01:04:30;41.88;;;18.98;;
59147;SDS011;44930;52.878;6.168;2023-02-22T01:06:56;42.55;;;17.67;;
59147;SDS011;44930;52.878;6.168;2023-02-22T01:09:24;44.00;;;17.30;;
59147;SDS011;44930;52.878;6.168;2023-02-22T01:11:53;50.30;;;18.92;;
59147;SDS011;44930;52.878;6.168;2023-02-22T01:14:19;47.35;;;18.38;;
59147;SDS011;44930;52.878;6.168;2023-02-22T01:16:46;40.63;;;18.10;;
59147;SDS011;44930;52.878;6.168;2023-02-22T01:19:12;37.30;;;17.05;;
59147;SDS011;44930;52.878;6.168;2023-02-22T01:21:39;43.88;;;17.85;;
59147;SDS011;44930;52.878;6.168;2023-02-22T01:24:05;43.95;;;17.25;;
59147;SDS011;44930;52.878;6.168;2023-02-22T01:26:30;40.83;;;17.70;;
59147;SDS011;44930;52.878;6.168;2023-02-22T01:28:56;42.47;;;17.75;;
59147;SDS011;44930;52.878;6.168;2023-02-22T01:31:22;39.55;;;16.45;;
59147;SDS011;44930;52.878;6.168;2023-02-22T01:33:48;40.95;;;17.25;;
59147;SDS011;44930;52.878;6.168;2023-02-22T01:36:15;39.25;;;17.45;;
59147;SDS011;44930;52.878;6.168;2023-02-22T01:38:43;37.60;;;17.73;;
59147;SDS011;44930;52.878;6.168;2023-02-22T01:41:09;34.63;;;15.55;;
59147;SDS011;44930;52.878;6.168;2023-02-22T01:43:36;38.28;;;16.48;;
59147;SDS011;44930;52.878;6.168;2023-02-22T01:46:03;36.42;;;18.13;;
59147;SDS011;44930;52.878;6.168;2023-02-22T01:51:08;39.40;;;17.58;;
59147;SDS011;44930;52.878;6.168;2023-02-22T01:53:39;41.13;;;16.73;;
59147;SDS011;44930;52.878;6.168;2023-02-22T01:56:09;36.28;;;17.05;;
59147;SDS011;44930;52.878;6.168;2023-02-22T01:58:35;39.90;;;17.30;;
59147;SDS011;44930;52.878;6.168;2023-02-22T02:01:04;32.78;;;16.17;;
59147;SDS011;44930;52.878;6.168;2023-02-22T02:03:31;34.63;;;15.43;;
59147;SDS011;44930;52.878;6.168;2023-02-22T02:05:58;36.90;;;17.25;;
59147;SDS011;44930;52.878;6.168;2023-02-22T02:08:32;35.20;;;16.35;;
59147;SDS011;44930;52.878;6.168;2023-02-22T02:11:06;32.65;;;14.82;;
59147;SDS011;44930;52.878;6.168;2023-02-22T02:13:33;32.75;;;15.73;;
59147;SDS011;44930;52.878;6.168;2023-02-22T02:15:59;29.73;;;15.13;;
59147;SDS011;44930;52.878;6.168;2023-02-22T02:18:25;30.75;;;14.45;;
59147;SDS011;44930;52.878;6.168;2023-02-22T02:27:19;33.13;;;15.65;;
59147;SDS011;44930;52.878;6.168;2023-02-22T02:30:13;31.40;;;14.40;;
59147;SDS011;44930;52.878;6.168;2023-02-22T02:35:26;30.58;;;13.80;;
59147;SDS011;44930;52.878;6.168;2023-02-22T02:40:48;27.83;;;14.18;;
59147;SDS011;44930;52.878;6.168;2023-02-22T02:46:23;30.15;;;15.38;;
59147;SDS011;44930;52.878;6.168;2023-02-22T02:49:11;32.42;;;14.95;;
59147;SDS011;44930;52.878;6.168;2023-02-22T02:51:41;29.80;;;13.77;;
59147;SDS011;44930;52.878;6.168;2023-02-22T02:54:08;29.60;;;14.05;;
59147;SDS011;44930;52.878;6.168;2023-02-22T02:56:37;24.58;;;13.05;;
59147;SDS011;44930;52.878;6.168;2023-02-22T02:59:02;26.08;;;12.63;;
59147;SDS011;44930;52.878;6.168;2023-02-22T03:06:52;29.57;;;12.63;;
59147;SDS011;44930;52.878;6.168;2023-02-22T03:09:40;30.23;;;13.80;;
59147;SDS011;44930;52.878;6.168;2023-02-22T03:20:28;26.75;;;13.77;;
59147;SDS011;44930;52.878;6.168;2023-02-22T03:22:59;28.35;;;14.55;;
59147;SDS011;44930;52.878;6.168;2023-02-22T03:25:36;28.27;;;14.52;;
59147;SDS011;44930;52.878;6.168;2023-02-22T03:28:07;28.88;;;13.48;;
59147;SDS011;44930;52.878;6.168;2023-02-22T03:30:37;27.30;;;14.50;;
59147;SDS011;44930;52.878;6.168;2023-02-22T03:33:15;28.90;;;14.55;;
59147;SDS011;44930;52.878;6.168;2023-02-22T03:35:52;29.33;;;15.60;;
59147;SDS011;44930;52.878;6.168;2023-02-22T03:38:21;31.55;;;15.43;;
59147;SDS011;44930;52.878;6.168;2023-02-22T03:40:49;30.52;;;14.43;;
59147;SDS011;44930;52.878;6.168;2023-02-22T03:43:20;32.78;;;17.25;;
59147;SDS011;44930;52.878;6.168;2023-02-22T03:45:49;29.67;;;15.15;;
59147;SDS011;44930;52.878;6.168;2023-02-22T03:48:21;29.65;;;16.83;;
59147;SDS011;44930;52.878;6.168;2023-02-22T03:50:53;36.22;;;17.45;;
59147;SDS011;44930;52.878;6.168;2023-02-22T03:53:18;39.35;;;20.17;;
59147;SDS011;44930;52.878;6.168;2023-02-22T03:55:47;35.53;;;18.75;;
59147;SDS011;44930;52.878;6.168;2023-02-22T03:58:17;38.03;;;20.25;;
59147;SDS011;44930;52.878;6.168;2023-02-22T04:00:46;35.10;;;19.17;;
59147;SDS011;44930;52.878;6.168;2023-02-22T04:03:15;43.67;;;22.88;;
59147;SDS011;44930;52.878;6.168;2023-02-22T04:05:41;44.47;;;22.33;;
59147;SDS011;44930;52.878;6.168;2023-02-22T04:08:07;53.83;;;26.98;;
59147;SDS011;44930;52.878;6.168;2023-02-22T04:10:32;53.13;;;27.35;;
59147;SDS011;44930;52.878;6.168;2023-02-22T04:12:58;48.03;;;24.15;;
59147;SDS011;44930;52.878;6.168;2023-02-22T04:15:24;53.38;;;27.35;;
59147;SDS011;44930;52.878;6.168;2023-02-22T04:17:50;54.42;;;27.80;;
59147;SDS011;44930;52.878;6.168;2023-02-22T04:20:19;57.67;;;29.05;;
59147;SDS011;44930;52.878;6.168;2023-02-22T04:22:49;55.80;;;30.00;;
59147;SDS011;44930;52.878;6.168;2023-02-22T04:25:19;59.72;;;31.08;;
59147;SDS011;44930;52.878;6.168;2023-02-22T04:27:45;69.18;;;33.90;;
59147;SDS011;44930;52.878;6.168;2023-02-22T04:30:11;74.38;;;35.10;;
59147;SDS011;44930;52.878;6.168;2023-02-22T04:32:37;71.78;;;35.35;;
59147;SDS011;44930;52.878;6.168;2023-02-22T04:35:03;76.65;;;38.15;;
59147;SDS011;44930;52.878;6.168;2023-02-22T04:37:30;75.07;;;36.75;;
59147;SDS011;44930;52.878;6.168;2023-02-22T04:39:58;75.10;;;37.83;;
59147;SDS011;44930;52.878;6.168;2023-02-22T04:42:25;72.15;;;37.05;;
59147;SDS011;44930;52.878;6.168;2023-02-22T04:44:50;75.15;;;36.65;;
59147;SDS011;44930;52.878;6.168;2023-02-22T04:47:16;79.68;;;41.70;;
59147;SDS011;44930;52.878;6.168;2023-02-22T04:49:42;78.10;;;37.28;;
59147;SDS011;44930;52.878;6.168;2023-02-22T04:52:08;83.65;;;40.88;;
59147;SDS011;44930;52.878;6.168;2023-02-22T04:54:33;88.03;;;43.53;;
59147;SDS011;44930;52.878;6.168;2023-02-22T04:56:59;84.97;;;42.50;;
59147;SDS011;44930;52.878;6.168;2023-02-22T04:59:24;85.00;;;41.10;;
59147;SDS011;44930;52.878;6.168;2023-02-22T05:01:50;85.55;;;41.55;;
59147;SDS011;44930;52.878;6.168;2023-02-22T05:04:15;90.47;;;44.63;;
59147;SDS011;44930;52.878;6.168;2023-02-22T05:06:41;83.20;;;42.45;;
59147;SDS011;44930;52.878;6.168;2023-02-22T05:09:07;83.50;;;42.72;;
59147;SDS011;44930;52.878;6.168;2023-02-22T05:11:32;85.70;;;40.95;;
59147;SDS011;44930;52.878;6.168;2023-02-22T05:13:58;83.90;;;40.67;;
59147;SDS011;44930;52.878;6.168;2023-02-22T05:16:24;84.72;;;41.38;;
59147;SDS011;44930;52.878;6.168;2023-02-22T05:18:50;86.38;;;43.00;;
59147;SDS011;44930;52.878;6.168;2023-02-22T05:21:16;84.28;;;42.95;;
59147;SDS011;44930;52.878;6.168;2023-02-22T05:23:41;89.68;;;43.05;;
59147;SDS011;44930;52.878;6.168;2023-02-22T05:26:07;89.43;;;44.13;;
59147;SDS011;44930;52.878;6.168;2023-02-22T05:28:34;82.45;;;42.58;;
59147;SDS011;44930;52.878;6.168;2023-02-22T05:30:59;88.40;;;47.45;;
59147;SDS011;44930;52.878;6.168;2023-02-22T05:33:25;99.70;;;45.95;;
59147;SDS011;44930;52.878;6.168;2023-02-22T05:35:51;89.63;;;45.78;;
59147;SDS011;44930;52.878;6.168;2023-02-22T05:38:16;91.97;;;44.65;;
59147;SDS011;44930;52.878;6.168;2023-02-22T05:40:42;91.57;;;44.63;;
59147;SDS011;44930;52.878;6.168;2023-02-22T05:43:08;96.18;;;47.33;;
59147;SDS011;44930;52.878;6.168;2023-02-22T05:45:33;92.28;;;45.55;;
59147;SDS011;44930;52.878;6.168;2023-02-22T05:48:00;96.10;;;46.90;;
59147;SDS011;44930;52.878;6.168;2023-02-22T05:50:26;97.82;;;46.40;;
59147;SDS011;44930;52.878;6.168;2023-02-22T05:52:52;98.80;;;47.03;;
59147;SDS011;44930;52.878;6.168;2023-02-22T05:55:21;90.53;;;44.80;;
59147;SDS011;44930;52.878;6.168;2023-02-22T05:57:48;97.90;;;47.47;;
59147;SDS011;44930;52.878;6.168;2023-02-22T06:02:44;98.72;;;46.28;;
59147;SDS011;44930;52.878;6.168;2023-02-22T06:05:10;95.15;;;46.55;;
59147;SDS011;44930;52.878;6.168;2023-02-22T06:07:35;99.50;;;46.58;;
59147;SDS011;44930;52.878;6.168;2023-02-22T06:10:01;104.15;;;48.72;;
59147;SDS011;44930;52.878;6.168;2023-02-22T06:12:27;108.72;;;50.38;;
59147;SDS011;44930;52.878;6.168;2023-02-22T06:14:53;110.03;;;49.72;;
59147;SDS011;44930;52.878;6.168;2023-02-22T06:17:18;109.93;;;48.80;;
59147;SDS011;44930;52.878;6.168;2023-02-22T06:19:44;110.45;;;48.80;;
59147;SDS011;44930;52.878;6.168;2023-02-22T06:22:18;111.82;;;48.85;;
59147;SDS011;44930;52.878;6.168;2023-02-22T06:24:44;112.38;;;51.72;;
59147;SDS011;44930;52.878;6.168;2023-02-22T06:27:10;109.15;;;50.30;;
59147;SDS011;44930;52.878;6.168;2023-02-22T06:29:35;111.07;;;51.50;;
59147;SDS011;44930;52.878;6.168;2023-02-22T06:32:01;115.57;;;49.65;;
59147;SDS011;44930;52.878;6.168;2023-02-22T06:34:27;112.07;;;50.80;;
59147;SDS011;44930;52.878;6.168;2023-02-22T06:36:53;111.22;;;51.00;;
59147;SDS011;44930;52.878;6.168;2023-02-22T06:39:18;108.53;;;47.25;;
59147;SDS011;44930;52.878;6.168;2023-02-22T06:41:45;109.07;;;48.70;;
59147;SDS011;44930;52.878;6.168;2023-02-22T06:44:11;110.50;;;50.30;;
59147;SDS011;44930;52.878;6.168;2023-02-22T06:46:38;111.03;;;49.97;;
59147;SDS011;44930;52.878;6.168;2023-02-22T06:49:04;107.05;;;48.65;;
59147;SDS011;44930;52.878;6.168;2023-02-22T06:51:30;111.68;;;49.38;;
59147;SDS011;44930;52.878;6.168;2023-02-22T06:54:00;114.47;;;51.90;;
59147;SDS011;44930;52.878;6.168;2023-02-22T06:56:27;119.13;;;50.75;;
59147;SDS011;44930;52.878;6.168;2023-02-22T06:58:52;106.28;;;48.05;;
59147;SDS011;44930;52.878;6.168;2023-02-22T07:01:18;115.25;;;51.72;;
59147;SDS011;44930;52.878;6.168;2023-02-22T07:03:43;106.65;;;47.95;;
59147;SDS011;44930;52.878;6.168;2023-02-22T07:06:09;114.32;;;50.28;;
59147;SDS011;44930;52.878;6.168;2023-02-22T07:08:35;116.22;;;50.55;;
59147;SDS011;44930;52.878;6.168;2023-02-22T07:11:00;122.88;;;51.58;;
59147;SDS011;44930;52.878;6.168;2023-02-22T07:13:26;115.25;;;52.17;;
59147;SDS011;44930;52.878;6.168;2023-02-22T07:15:52;111.95;;;51.35;;
59147;SDS011;44930;52.878;6.168;2023-02-22T07:18:18;115.80;;;49.50;;
59147;SDS011;44930;52.878;6.168;2023-02-22T07:20:43;116.18;;;51.50;;
59147;SDS011;44930;52.878;6.168;2023-02-22T07:23:12;107.97;;;48.72;;
59147;SDS011;44930;52.878;6.168;2023-02-22T07:25:39;117.07;;;53.28;;
59147;SDS011;44930;52.878;6.168;2023-02-22T07:28:04;111.80;;;49.53;;
59147;SDS011;44930;52.878;6.168;2023-02-22T07:30:31;117.30;;;50.90;;
59147;SDS011;44930;52.878;6.168;2023-02-22T07:32:58;109.93;;;51.03;;
59147;SDS011;44930;52.878;6.168;2023-02-22T07:35:27;115.88;;;51.97;;
59147;SDS011;44930;52.878;6.168;2023-02-22T07:37:54;115.32;;;51.63;;
59147;SDS011;44930;52.878;6.168;2023-02-22T07:40:20;116.20;;;50.00;;
59147;SDS011;44930;52.878;6.168;2023-02-22T07:42:50;115.15;;;51.08;;
59147;SDS011;44930;52.878;6.168;2023-02-22T07:45:17;115.28;;;49.20;;
59147;SDS011;44930;52.878;6.168;2023-02-22T07:47:44;113.13;;;48.67;;
59147;SDS011;44930;52.878;6.168;2023-02-22T07:50:12;117.30;;;50.72;;
59147;SDS011;44930;52.878;6.168;2023-02-22T07:52:38;113.93;;;49.00;;
59147;SDS011;44930;52.878;6.168;2023-02-22T07:55:04;117.45;;;53.30;;
59147;SDS011;44930;52.878;6.168;2023-02-22T07:57:31;113.68;;;49.33;;
59147;SDS011;44930;52.878;6.168;2023-02-22T07:59:57;109.15;;;46.45;;
59147;SDS011;44930;52.878;6.168;2023-02-22T08:02:24;118.60;;;52.35;;
59147;SDS011;44930;52.878;6.168;2023-02-22T08:04:50;118.55;;;49.70;;
59147;SDS011;44930;52.878;6.168;2023-02-22T08:07:16;116.38;;;50.60;;
59147;SDS011;44930;52.878;6.168;2023-02-22T08:09:41;109.80;;;47.35;;
59147;SDS011;44930;52.878;6.168;2023-02-22T08:12:07;114.78;;;51.13;;
59147;SDS011;44930;52.878;6.168;2023-02-22T08:14:32;111.72;;;50.20;;
59147;SDS011;44930;52.878;6.168;2023-02-22T08:16:58;111.75;;;50.75;;
59147;SDS011;44930;52.878;6.168;2023-02-22T08:19:23;113.88;;;49.00;;
59147;SDS011;44930;52.878;6.168;2023-02-22T08:21:49;115.40;;;50.17;;
59147;SDS011;44930;52.878;6.168;2023-02-22T08:24:14;108.35;;;47.33;;
59147;SDS011;44930;52.878;6.168;2023-02-22T08:26:45;104.95;;;48.85;;
59147;SDS011;44930;52.878;6.168;2023-02-22T08:29:11;118.28;;;50.80;;
59147;SDS011;44930;52.878;6.168;2023-02-22T08:31:38;114.50;;;48.30;;
59147;SDS011;44930;52.878;6.168;2023-02-22T08:34:04;109.82;;;48.47;;
59147;SDS011;44930;52.878;6.168;2023-02-22T08:36:30;112.05;;;48.78;;
59147;SDS011;44930;52.878;6.168;2023-02-22T08:38:57;109.25;;;48.22;;
59147;SDS011;44930;52.878;6.168;2023-02-22T08:41:22;112.93;;;50.00;;
59147;SDS011;44930;52.878;6.168;2023-02-22T08:43:48;105.32;;;47.03;;
59147;SDS011;44930;52.878;6.168;2023-02-22T08:46:15;112.10;;;49.05;;
59147;SDS011;44930;52.878;6.168;2023-02-22T08:48:50;110.00;;;51.15;;
59147;SDS011;44930;52.878;6.168;2023-02-22T08:51:16;114.50;;;50.63;;
59147;SDS011;44930;52.878;6.168;2023-02-22T08:53:42;109.68;;;48.75;;
59147;SDS011;44930;52.878;6.168;2023-02-22T08:56:08;111.93;;;50.03;;
59147;SDS011;44930;52.878;6.168;2023-02-22T08:58:34;106.35;;;47.67;;
59147;SDS011;44930;52.878;6.168;2023-02-22T09:01:00;116.30;;;47.83;;
59147;SDS011;44930;52.878;6.168;2023-02-22T09:03:26;113.57;;;49.08;;
59147;SDS011;44930;52.878;6.168;2023-02-22T09:05:52;110.60;;;48.30;;
59147;SDS011;44930;52.878;6.168;2023-02-22T09:08:17;111.88;;;48.00;;
59147;SDS011;44930;52.878;6.168;2023-02-22T09:10:43;111.85;;;48.92;;
59147;SDS011;44930;52.878;6.168;2023-02-22T09:13:09;110.53;;;50.13;;
59147;SDS011;44930;52.878;6.168;2023-02-22T09:15:35;103.35;;;45.50;;
59147;SDS011;44930;52.878;6.168;2023-02-22T09:18:02;106.63;;;46.28;;
59147;SDS011;44930;52.878;6.168;2023-02-22T09:20:29;106.00;;;45.00;;
59147;SDS011;44930;52.878;6.168;2023-02-22T09:22:55;105.93;;;46.47;;
59147;SDS011;44930;52.878;6.168;2023-02-22T09:25:21;100.68;;;46.80;;
59147;SDS011;44930;52.878;6.168;2023-02-22T09:27:48;106.55;;;43.90;;
59147;SDS011;44930;52.878;6.168;2023-02-22T09:30:22;105.38;;;44.08;;
59147;SDS011;44930;52.878;6.168;2023-02-22T09:32:49;111.35;;;45.85;;
59147;SDS011;44930;52.878;6.168;2023-02-22T09:35:16;109.80;;;45.60;;
59147;SDS011;44930;52.878;6.168;2023-02-22T09:37:41;112.63;;;47.00;;
59147;SDS011;44930;52.878;6.168;2023-02-22T09:40:13;98.72;;;44.58;;
59147;SDS011;44930;52.878;6.168;2023-02-22T09:43:12;101.97;;;44.65;;
59147;SDS011;44930;52.878;6.168;2023-02-22T09:46:20;105.03;;;44.55;;
59147;SDS011;44930;52.878;6.168;2023-02-22T09:51:39;97.53;;;42.88;;
59147;SDS011;44930;52.878;6.168;2023-02-22T09:54:38;98.60;;;43.90;;
59147;SDS011;44930;52.878;6.168;2023-02-22T09:57:08;113.75;;;42.92;;
59147;SDS011;44930;52.878;6.168;2023-02-22T09:59:54;107.70;;;44.60;;
59147;SDS011;44930;52.878;6.168;2023-02-22T10:05:25;102.80;;;41.70;;
59147;SDS011;44930;52.878;6.168;2023-02-22T10:08:01;104.07;;;43.28;;
59147;SDS011;44930;52.878;6.168;2023-02-22T10:10:33;109.03;;;45.60;;
59147;SDS011;44930;52.878;6.168;2023-02-22T10:18:44;114.40;;;45.78;;
59147;SDS011;44930;52.878;6.168;2023-02-22T10:27:14;104.72;;;44.30;;
59147;SDS011;44930;52.878;6.168;2023-02-22T10:29:53;99.38;;;40.53;;
59147;SDS011;44930;52.878;6.168;2023-02-22T10:32:48;97.93;;;40.47;;
59147;SDS011;44930;52.878;6.168;2023-02-22T10:35:34;110.93;;;44.30;;
59147;SDS011;44930;52.878;6.168;2023-02-22T10:38:09;96.50;;;39.97;;
59147;SDS011;44930;52.878;6.168;2023-02-22T10:40:47;107.85;;;41.50;;
59147;SDS011;44930;52.878;6.168;2023-02-22T10:43:13;121.68;;;42.92;;
59147;SDS011;44930;52.878;6.168;2023-02-22T10:45:39;115.93;;;45.15;;
59147;SDS011;44930;52.878;6.168;2023-02-22T10:48:10;113.18;;;45.10;;
59147;SDS011;44930;52.878;6.168;2023-02-22T10:50:39;121.10;;;44.38;;
59147;SDS011;44930;52.878;6.168;2023-02-22T10:53:08;115.85;;;44.78;;
59147;SDS011;44930;52.878;6.168;2023-02-22T10:55:35;113.53;;;43.33;;
59147;SDS011;44930;52.878;6.168;2023-02-22T10:58:21;114.40;;;43.10;;
59147;SDS011;44930;52.878;6.168;2023-02-22T11:00:48;116.38;;;43.78;;
59147;SDS011;44930;52.878;6.168;2023-02-22T11:03:16;107.32;;;43.00;;
59147;SDS011;44930;52.878;6.168;2023-02-22T11:05:44;123.53;;;42.95;;
59147;SDS011;44930;52.878;6.168;2023-02-22T11:10:45;134.50;;;47.22;;
59147;SDS011;44930;52.878;6.168;2023-02-22T11:13:28;131.32;;;45.35;;
59147;SDS011;44930;52.878;6.168;2023-02-22T11:15:58;129.70;;;47.28;;
59147;SDS011;44930;52.878;6.168;2023-02-22T11:18:40;125.53;;;46.78;;
59147;SDS011;44930;52.878;6.168;2023-02-22T11:21:07;124.03;;;43.85;;
59147;SDS011;44930;52.878;6.168;2023-02-22T11:23:36;124.20;;;45.45;;
59147;SDS011;44930;52.878;6.168;2023-02-22T11:26:14;131.32;;;46.83;;
59147;SDS011;44930;52.878;6.168;2023-02-22T11:28:45;125.80;;;45.95;;
59147;SDS011;44930;52.878;6.168;2023-02-22T11:33:56;127.68;;;45.10;;
59147;SDS011;44930;52.878;6.168;2023-02-22T11:36:36;124.50;;;45.83;;
59147;SDS011;44930;52.878;6.168;2023-02-22T11:39:22;125.88;;;45.05;;
59147;SDS011;44930;52.878;6.168;2023-02-22T11:41:56;122.32;;;43.85;;
59147;SDS011;44930;52.878;6.168;2023-02-22T11:46:53;129.82;;;45.00;;
59147;SDS011;44930;52.878;6.168;2023-02-22T11:49:24;116.85;;;41.40;;
59147;SDS011;44930;52.878;6.168;2023-02-22T11:54:57;115.80;;;41.33;;
59147;SDS011;44930;52.878;6.168;2023-02-22T12:00:12;134.13;;;46.03;;
59147;SDS011;44930;52.878;6.168;2023-02-22T12:17:01;121.00;;;39.33;;
59147;SDS011;44930;52.878;6.168;2023-02-22T12:19:40;120.65;;;42.45;;
59147;SDS011;44930;52.878;6.168;2023-02-22T12:24:42;110.65;;;41.22;;
59147;SDS011;44930;52.878;6.168;2023-02-22T12:27:27;110.93;;;40.88;;
59147;SDS011;44930;52.878;6.168;2023-02-22T12:29:59;107.95;;;44.15;;
59147;SDS011;44930;52.878;6.168;2023-02-22T12:32:32;111.85;;;41.35;;
59147;SDS011;44930;52.878;6.168;2023-02-22T12:35:23;104.47;;;39.67;;
59147;SDS011;44930;52.878;6.168;2023-02-22T12:38:21;111.70;;;40.95;;
59147;SDS011;44930;52.878;6.168;2023-02-22T12:41:04;116.95;;;41.17;;
59147;SDS011;44930;52.878;6.168;2023-02-22T12:44:02;120.68;;;42.20;;
59147;SDS011;44930;52.878;6.168;2023-02-22T12:46:35;111.57;;;41.75;;
59147;SDS011;44930;52.878;6.168;2023-02-22T12:51:48;131.90;;;48.30;;
59147;SDS011;44930;52.878;6.168;2023-02-22T12:54:38;127.45;;;46.35;;
59147;SDS011;44930;52.878;6.168;2023-02-22T13:00:09;125.00;;;44.83;;
59147;SDS011;44930;52.878;6.168;2023-02-22T13:02:57;115.00;;;43.45;;
59147;SDS011;44930;52.878;6.168;2023-02-22T13:05:34;111.20;;;41.33;;
59147;SDS011;44930;52.878;6.168;2023-02-22T13:16:23;99.20;;;38.42;;
59147;SDS011;44930;52.878;6.168;2023-02-22T13:19:02;100.70;;;37.55;;
59147;SDS011;44930;52.878;6.168;2023-02-22T13:21:46;98.80;;;39.78;;
59147;SDS011;44930;52.878;6.168;2023-02-22T13:29:56;102.78;;;38.60;;
59147;SDS011;44930;52.878;6.168;2023-02-22T13:40:34;88.88;;;36.47;;
59147;SDS011;44930;52.878;6.168;2023-02-22T13:51:43;81.75;;;33.10;;
59147;SDS011;44930;52.878;6.168;2023-02-22T13:54:14;80.95;;;33.28;;
59147;SDS011;44930;52.878;6.168;2023-02-22T13:56:58;78.72;;;32.30;;
59147;SDS011;44930;52.878;6.168;2023-02-22T13:59:31;73.80;;;31.23;;
59147;SDS011;44930;52.878;6.168;2023-02-22T14:02:00;73.15;;;31.52;;
59147;SDS011;44930;52.878;6.168;2023-02-22T14:04:33;80.60;;;33.35;;
59147;SDS011;44930;52.878;6.168;2023-02-22T14:09:59;68.03;;;30.50;;
59147;SDS011;44930;52.878;6.168;2023-02-22T14:17:35;77.22;;;32.05;;
59147;SDS011;44930;52.878;6.168;2023-02-22T14:20:17;72.05;;;30.70;;
59147;SDS011;44930;52.878;6.168;2023-02-22T14:22:51;75.63;;;30.17;;
59147;SDS011;44930;52.878;6.168;2023-02-22T14:25:27;76.32;;;31.55;;
59147;SDS011;44930;52.878;6.168;2023-02-22T14:28:08;69.93;;;31.38;;
59147;SDS011;44930;52.878;6.168;2023-02-22T14:31:15;70.65;;;30.70;;
59147;SDS011;44930;52.878;6.168;2023-02-22T14:36:28;66.35;;;30.50;;
59147;SDS011;44930;52.878;6.168;2023-02-22T14:39:02;71.78;;;32.35;;
59147;SDS011;44930;52.878;6.168;2023-02-22T14:41:30;63.53;;;30.55;;
59147;SDS011;44930;52.878;6.168;2023-02-22T14:43:57;67.68;;;32.78;;
59147;SDS011;44930;52.878;6.168;2023-02-22T14:46:27;68.28;;;30.80;;
59147;SDS011;44930;52.878;6.168;2023-02-22T14:48:59;69.78;;;31.67;;
59147;SDS011;44930;52.878;6.168;2023-02-22T14:51:28;68.75;;;30.80;;
59147;SDS011;44930;52.878;6.168;2023-02-22T14:54:33;68.60;;;28.75;;
59147;SDS011;44930;52.878;6.168;2023-02-22T14:57:02;66.15;;;27.63;;
59147;SDS011;44930;52.878;6.168;2023-02-22T15:02:36;62.17;;;28.65;;
59147;SDS011;44930;52.878;6.168;2023-02-22T15:05:02;64.55;;;29.92;;
59147;SDS011;44930;52.878;6.168;2023-02-22T15:07:29;65.00;;;29.15;;
59147;SDS011;44930;52.878;6.168;2023-02-22T15:10:06;60.25;;;27.63;;
59147;SDS011;44930;52.878;6.168;2023-02-22T15:12:41;63.00;;;29.10;;
59147;SDS011;44930;52.878;6.168;2023-02-22T15:15:32;59.53;;;28.77;;
59147;SDS011;44930;52.878;6.168;2023-02-22T15:17:59;62.78;;;28.23;;
59147;SDS011;44930;52.878;6.168;2023-02-22T15:20:25;64.15;;;29.58;;
59147;SDS011;44930;52.878;6.168;2023-02-22T15:22:57;57.47;;;27.55;;
59147;SDS011;44930;52.878;6.168;2023-02-22T15:25:24;63.33;;;30.33;;
59147;SDS011;44930;52.878;6.168;2023-02-22T15:27:52;58.50;;;29.73;;
59147;SDS011;44930;52.878;6.168;2023-02-22T15:30:26;62.38;;;29.70;;
59147;SDS011;44930;52.878;6.168;2023-02-22T15:32:53;57.72;;;27.75;;
59147;SDS011;44930;52.878;6.168;2023-02-22T15:35:24;61.53;;;27.23;;
59147;SDS011;44930;52.878;6.168;2023-02-22T15:38:02;61.60;;;29.60;;
59147;SDS011;44930;52.878;6.168;2023-02-22T15:40:41;61.47;;;30.23;;
59147;SDS011;44930;52.878;6.168;2023-02-22T15:43:20;60.38;;;30.02;;
59147;SDS011;44930;52.878;6.168;2023-02-22T15:45:52;68.55;;;32.33;;
59147;SDS011;44930;52.878;6.168;2023-02-22T15:48:19;59.25;;;29.77;;
59147;SDS011;44930;52.878;6.168;2023-02-22T15:53:39;60.63;;;27.52;;
59147;SDS011;44930;52.878;6.168;2023-02-22T15:56:13;64.28;;;30.23;;
59147;SDS011;44930;52.878;6.168;2023-02-22T15:58:41;58.50;;;29.17;;
59147;SDS011;44930;52.878;6.168;2023-02-22T16:01:09;61.10;;;29.77;;
59147;SDS011;44930;52.878;6.168;2023-02-22T16:03:53;61.38;;;29.55;;
59147;SDS011;44930;52.878;6.168;2023-02-22T16:06:25;65.65;;;30.92;;
59147;SDS011;44930;52.878;6.168;2023-02-22T16:09:07;66.18;;;31.65;;
59147;SDS011;44930;52.878;6.168;2023-02-22T16:11:33;59.80;;;29.27;;
59147;SDS011;44930;52.878;6.168;2023-02-22T16:14:04;59.63;;;27.73;;
59147;SDS011;44930;52.878;6.168;2023-02-22T16:17:08;62.72;;;30.90;;
59147;SDS011;44930;52.878;6.168;2023-02-22T16:22:04;62.45;;;31.02;;
59147;SDS011;44930;52.878;6.168;2023-02-22T16:24:37;60.42;;;30.25;;
59147;SDS011;44930;52.878;6.168;2023-02-22T16:27:25;64.25;;;31.77;;
59147;SDS011;44930;52.878;6.168;2023-02-22T16:30:03;65.53;;;35.05;;
59147;SDS011;44930;52.878;6.168;2023-02-22T16:32:31;84.93;;;44.08;;
59147;SDS011;44930;52.878;6.168;2023-02-22T16:34:57;75.43;;;42.22;;
59147;SDS011;44930;52.878;6.168;2023-02-22T16:37:23;70.07;;;40.13;;
59147;SDS011;44930;52.878;6.168;2023-02-22T16:39:49;60.47;;;31.70;;
59147;SDS011;44930;52.878;6.168;2023-02-22T16:42:17;76.90;;;43.88;;
59147;SDS011;44930;52.878;6.168;2023-02-22T16:44:48;59.65;;;32.25;;
59147;SDS011;44930;52.878;6.168;2023-02-22T16:47:17;60.47;;;30.75;;
59147;SDS011;44930;52.878;6.168;2023-02-22T16:49:43;69.43;;;34.90;;
59147;SDS011;44930;52.878;6.168;2023-02-22T16:52:09;60.38;;;30.42;;